Ticaboo, Utah
Current Conditions -  °F | °C
As of 6:35 PM on Thursday 27 Nov 2014 (Local Time) from KBDG Reporting Station
Clear Clear  
Wind Chill: 37°   Ceiling: Unl
Heat Index: 41°   Visibility: 10mi
Dew Point: 24°   Wind: 6mph
Humidity: 51%   Direction: 30°NNE
Pressure: 30.41"   Gusts: NA
Location:  37.6208°N, 109.479°W
Report Text: KBDG 280135Z AUTO 03005KT 10SM CLR 05/M05 A3041 RMK AO1 T00491046
Loading
Personal Weather Stations






























Interactive Weather Map New forecast layout! Learn more

10-Day Weather Forecast

Advertisements
Track Severe Weather on mobile